createdAt,value
2022-10-07T00:02:11.330Z,16.40
2022-10-07T00:04:45.911Z,16.40
2022-10-07T00:07:16.784Z,16.40
2022-10-07T00:09:46.884Z,16.40
2022-10-07T00:12:17.548Z,16.40
2022-10-07T00:14:49.531Z,16.40
2022-10-07T00:17:19.624Z,16.40
2022-10-07T00:19:50.119Z,16.40
2022-10-07T00:22:20.201Z,16.40
2022-10-07T00:24:50.237Z,16.30
2022-10-07T00:27:20.463Z,16.20
2022-10-07T00:29:52.579Z,16.10
2022-10-07T00:32:22.774Z,16.10
2022-10-07T00:34:52.991Z,16.00
2022-10-07T00:37:22.959Z,16.00
2022-10-07T00:39:53.030Z,15.90
2022-10-07T00:42:23.129Z,15.90
2022-10-07T00:44:54.788Z,15.80
2022-10-07T00:47:30.569Z,15.80
2022-10-07T00:50:05.051Z,15.70
2022-10-07T00:52:37.500Z,15.70
2022-10-07T00:55:13.722Z,15.60
2022-10-07T00:57:45.585Z,15.70
2022-10-07T01:00:18.856Z,15.60
2022-10-07T01:02:49.145Z,15.60
2022-10-07T01:05:21.784Z,15.60
2022-10-07T01:07:58.272Z,15.50
2022-10-07T01:10:35.418Z,15.40
2022-10-07T01:13:15.218Z,15.40
2022-10-07T01:15:53.912Z,15.40
2022-10-07T01:18:27.634Z,15.40
2022-10-07T01:21:02.642Z,15.40
2022-10-07T01:23:52.131Z,15.30
2022-10-07T01:26:50.750Z,15.30
2022-10-07T01:29:25.559Z,15.30
2022-10-07T01:32:05.581Z,15.30
2022-10-07T01:34:37.117Z,15.30
2022-10-07T01:37:10.757Z,15.30
2022-10-07T01:39:46.260Z,15.30
2022-10-07T01:42:19.192Z,15.30
2022-10-07T01:44:53.441Z,15.30
2022-10-07T01:47:23.535Z,15.20
2022-10-07T01:49:53.708Z,15.20
2022-10-07T01:52:46.526Z,15.20
2022-10-07T01:55:43.481Z,15.20
2022-10-07T01:58:30.710Z,15.20
2022-10-07T02:01:08.553Z,15.10
2022-10-07T02:03:50.178Z,15.20
2022-10-07T02:06:27.814Z,15.20
2022-10-07T02:09:02.176Z,15.20
2022-10-07T02:11:37.338Z,15.20
2022-10-07T02:14:14.037Z,15.10
2022-10-07T02:16:46.138Z,15.20
2022-10-07T03:01:03.103Z,15.20
2022-10-07T03:03:43.515Z,15.20
2022-10-07T03:06:48.237Z,15.30
2022-10-07T03:09:20.536Z,15.20
2022-10-07T03:11:56.741Z,15.20
2022-10-07T03:14:45.613Z,15.20
2022-10-07T03:17:29.466Z,15.20
2022-10-07T03:20:35.998Z,15.20
2022-10-07T03:23:28.308Z,15.10
2022-10-07T03:29:49.584Z,15.00
2022-10-07T03:33:04.291Z,14.90
2022-10-07T03:35:51.541Z,14.90
2022-10-07T03:38:22.179Z,14.80
2022-10-07T03:40:53.656Z,14.80
2022-10-07T03:43:38.926Z,14.80
2022-10-07T03:46:39.843Z,14.70
2022-10-07T03:57:59.269Z,14.80
2022-10-07T03:59:58.233Z,14.70
2022-10-07T04:02:48.489Z,14.60
2022-10-07T04:06:11.864Z,14.60
2022-10-07T04:09:16.183Z,14.50
2022-10-07T04:12:33.376Z,14.50
2022-10-07T04:18:33.357Z,14.50
2022-10-07T04:21:56.850Z,14.60
2022-10-07T04:25:28.920Z,14.70
2022-10-07T04:28:47.049Z,14.70
2022-10-07T04:31:19.486Z,14.80
2022-10-07T04:33:53.633Z,14.80
2022-10-07T04:36:44.869Z,14.80
2022-10-07T04:39:59.171Z,14.80
2022-10-07T04:43:29.871Z,14.80
2022-10-07T05:06:11.995Z,14.90
2022-10-07T05:08:44.464Z,14.80
2022-10-07T05:11:14.779Z,14.80
2022-10-07T05:13:45.042Z,14.80
2022-10-07T05:16:15.203Z,14.80
2022-10-07T05:18:45.647Z,14.70
2022-10-07T05:21:17.434Z,14.60
2022-10-07T05:23:47.437Z,14.60
2022-10-07T05:26:18.486Z,14.50
2022-10-07T05:28:50.100Z,14.50
2022-10-07T05:31:20.992Z,14.40
2022-10-07T05:33:52.129Z,14.30
2022-10-07T05:36:24.292Z,14.20
2022-10-07T05:38:56.645Z,14.10
2022-10-07T05:41:28.891Z,14.10
2022-10-07T05:43:59.069Z,14.00
2022-10-07T05:46:29.341Z,13.90
2022-10-07T05:48:59.885Z,13.90
2022-10-07T05:51:31.707Z,13.90
2022-10-07T05:54:02.113Z,13.90
2022-10-07T05:56:33.089Z,13.90
2022-10-07T05:59:03.167Z,13.80
2022-10-07T06:01:33.273Z,13.80
2022-10-07T06:04:03.816Z,13.80
2022-10-07T06:06:36.664Z,13.90
2022-10-07T06:09:20.461Z,13.90
2022-10-07T06:12:07.279Z,13.90
2022-10-07T06:14:37.435Z,13.90
2022-10-07T06:17:08.061Z,13.90
2022-10-07T06:19:39.889Z,13.90
2022-10-07T06:22:12.068Z,13.90
2022-10-07T06:24:42.157Z,13.90
2022-10-07T06:27:12.424Z,13.90
2022-10-07T06:29:43.052Z,13.90
2022-10-07T06:32:13.263Z,13.90
2022-10-07T06:34:43.276Z,13.90
2022-10-07T06:37:14.882Z,13.80
2022-10-07T06:39:44.868Z,13.80
2022-10-07T06:42:14.884Z,13.80
2022-10-07T06:44:44.946Z,13.80
2022-10-07T06:47:14.933Z,13.80
2022-10-07T06:49:45.265Z,13.80
2022-10-07T06:52:17.156Z,13.80
2022-10-07T06:54:47.162Z,13.80
2022-10-07T06:57:43.840Z,13.80
2022-10-07T07:00:08.264Z,13.80
2022-10-07T07:02:38.874Z,13.70
2022-10-07T07:05:10.061Z,13.60
2022-10-07T07:07:43.249Z,13.40
2022-10-07T07:10:13.691Z,13.20
2022-10-07T07:12:44.364Z,13.20
2022-10-07T07:15:15.282Z,13.00
2022-10-07T07:17:46.463Z,13.00
2022-10-07T07:20:17.388Z,12.90
2022-10-07T07:22:50.239Z,12.80
2022-10-07T07:25:20.530Z,12.80
2022-10-07T07:27:56.777Z,12.90
2022-10-07T07:30:28.580Z,13.00
2022-10-07T07:32:59.778Z,13.00
2022-10-07T07:35:33.516Z,13.10
2022-10-07T07:38:05.634Z,13.20
2022-10-07T07:40:38.071Z,13.40
2022-10-07T07:43:08.497Z,13.40
2022-10-07T07:45:39.184Z,13.50
2022-10-07T07:48:09.365Z,13.50
2022-10-07T07:50:44.057Z,13.50
2022-10-07T07:53:16.004Z,13.50
2022-10-07T07:55:55.564Z,13.50
2022-10-07T07:58:26.501Z,13.60
2022-10-07T08:01:04.194Z,13.60
2022-10-07T08:03:37.974Z,13.50
2022-10-07T08:06:10.332Z,13.60
2022-10-07T08:08:44.112Z,13.50
2022-10-07T08:11:15.531Z,13.40
2022-10-07T08:13:46.244Z,13.30
2022-10-07T08:16:17.930Z,13.40
2022-10-07T08:18:50.599Z,13.40
2022-10-07T08:21:22.693Z,13.40
2022-10-07T08:23:59.024Z,13.50
2022-10-07T08:26:29.757Z,13.40
2022-10-07T08:29:01.240Z,13.40
2022-10-07T08:31:32.120Z,13.40
2022-10-07T08:34:03.654Z,13.30
2022-10-07T08:36:35.263Z,13.30
2022-10-07T08:39:08.205Z,13.20
2022-10-07T08:41:48.023Z,13.10
2022-10-07T08:44:22.950Z,13.00
2022-10-07T08:46:59.514Z,13.10
2022-10-07T08:49:38.446Z,13.10
2022-10-07T08:52:27.944Z,13.10
2022-10-07T08:55:00.667Z,13.00
2022-10-07T08:57:48.716Z,12.90
2022-10-07T09:00:23.802Z,12.90
2022-10-07T09:03:09.214Z,13.00
2022-10-07T09:05:45.078Z,13.00
2022-10-07T09:08:22.716Z,12.90
2022-10-07T09:10:56.949Z,12.90
2022-10-07T09:13:31.271Z,12.80
2022-10-07T09:16:06.728Z,12.70
2022-10-07T09:18:40.678Z,12.70
2022-10-07T09:21:17.379Z,12.60
2022-10-07T09:23:49.313Z,12.60
2022-10-07T09:26:21.335Z,12.60
2022-10-07T09:28:51.744Z,12.60
2022-10-07T09:31:24.254Z,12.60
2022-10-07T09:33:55.040Z,12.70
2022-10-07T09:36:26.854Z,12.70
2022-10-07T09:38:57.008Z,12.80
2022-10-07T09:41:32.817Z,12.90
2022-10-07T09:44:06.760Z,12.90
2022-10-07T09:46:48.287Z,13.00
2022-10-07T09:49:43.261Z,12.90
2022-10-07T09:52:23.030Z,12.80
2022-10-07T09:54:54.378Z,12.80
2022-10-07T09:57:32.897Z,12.80
2022-10-07T10:00:25.142Z,12.60
2022-10-07T10:03:02.694Z,12.50
2022-10-07T10:05:37.641Z,12.40
2022-10-07T10:08:10.150Z,12.30
2022-10-07T10:10:41.245Z,12.20
2022-10-07T10:13:32.195Z,12.20
2022-10-07T10:16:03.151Z,12.10
2022-10-07T10:18:39.986Z,12.10
2022-10-07T10:21:30.490Z,12.20
2022-10-07T10:24:01.867Z,12.20
2022-10-07T10:26:57.187Z,12.30
2022-10-07T10:29:40.309Z,12.40
2022-10-07T10:32:46.075Z,12.40
2022-10-07T10:35:21.018Z,12.60
2022-10-07T10:38:05.429Z,12.80
2022-10-07T10:40:40.368Z,13.00
2022-10-07T10:43:25.430Z,13.10
2022-10-07T10:46:11.419Z,13.20
2022-10-07T10:48:47.410Z,13.30
2022-10-07T10:51:35.033Z,13.40
2022-10-07T10:54:21.142Z,13.30
2022-10-07T10:56:58.962Z,13.30
2022-10-07T10:59:44.197Z,13.30
2022-10-07T11:02:36.677Z,13.30
2022-10-07T11:05:14.554Z,13.40
2022-10-07T11:07:50.258Z,13.40
2022-10-07T11:10:24.359Z,13.40
2022-10-07T11:12:59.414Z,13.40
2022-10-07T11:15:34.099Z,13.40
2022-10-07T11:18:11.765Z,13.40
2022-10-07T11:20:45.039Z,13.40
2022-10-07T11:23:23.695Z,13.40
2022-10-07T11:25:57.953Z,13.40
2022-10-07T11:28:30.998Z,13.40
2022-10-07T11:31:11.865Z,13.40
2022-10-07T11:33:51.612Z,13.40
2022-10-07T11:36:24.500Z,13.40
2022-10-07T11:38:55.850Z,13.40
2022-10-07T11:41:30.910Z,13.40
2022-10-07T11:44:05.265Z,13.40
2022-10-07T11:46:38.971Z,13.40
2022-10-07T11:49:16.419Z,13.40
2022-10-07T11:51:59.163Z,13.40
2022-10-07T11:54:32.827Z,13.40
2022-10-07T11:57:03.268Z,13.40
2022-10-07T11:59:45.373Z,13.40
2022-10-07T12:02:47.268Z,13.30
2022-10-07T12:06:08.807Z,13.30
2022-10-07T12:08:41.350Z,13.30
2022-10-07T12:11:44.502Z,13.20
2022-10-07T12:14:43.055Z,13.20
2022-10-07T12:17:25.849Z,13.10
2022-10-07T12:20:32.585Z,12.90
2022-10-07T12:23:50.819Z,12.80
2022-10-07T12:26:50.884Z,12.60
2022-10-07T12:29:24.902Z,12.40
2022-10-07T12:31:55.021Z,12.30
2022-10-07T12:34:31.516Z,12.20
2022-10-07T12:37:34.618Z,12.10
2022-10-07T12:40:14.740Z,12.00
2022-10-07T12:42:52.376Z,11.90
2022-10-07T12:45:24.607Z,11.80
2022-10-07T12:47:58.392Z,11.70
2022-10-07T12:50:29.741Z,11.70
2022-10-07T12:53:03.161Z,11.60
2022-10-07T12:55:37.789Z,11.60
2022-10-07T12:58:44.149Z,11.50
2022-10-07T13:01:27.011Z,11.50
2022-10-07T13:04:25.991Z,11.40
2022-10-07T13:07:23.150Z,11.40
2022-10-07T13:10:11.955Z,11.30
2022-10-07T13:12:49.650Z,11.30
2022-10-07T13:15:31.140Z,11.20
2022-10-07T13:18:11.024Z,11.20
2022-10-07T13:20:56.269Z,11.10
2022-10-07T13:23:30.118Z,11.10
2022-10-07T13:26:02.370Z,11.10
2022-10-07T13:28:46.599Z,11.10
2022-10-07T13:31:22.676Z,11.20
2022-10-07T13:33:54.259Z,11.20
2022-10-07T13:36:26.573Z,11.20
2022-10-07T13:39:12.382Z,11.20
2022-10-07T13:41:45.608Z,11.20
2022-10-07T13:44:19.192Z,11.30
2022-10-07T13:46:57.978Z,11.30
2022-10-07T13:49:31.408Z,11.30
2022-10-07T13:52:03.933Z,11.10
2022-10-07T13:54:36.465Z,11.20
2022-10-07T13:57:11.603Z,11.30
2022-10-07T13:59:42.715Z,11.30
2022-10-07T14:02:17.505Z,11.40
2022-10-07T14:05:00.609Z,11.40
2022-10-07T14:07:31.706Z,11.50
2022-10-07T14:10:10.358Z,11.50
2022-10-07T14:12:43.802Z,11.40
2022-10-07T14:15:17.706Z,11.50
2022-10-07T14:17:52.519Z,11.50
2022-10-07T14:20:28.364Z,11.60
2022-10-07T14:23:00.627Z,11.60
2022-10-07T14:25:32.561Z,11.80
2022-10-07T14:28:18.957Z,11.90
2022-10-07T14:31:06.687Z,11.80
2022-10-07T14:34:07.530Z,11.80
2022-10-07T14:36:38.122Z,11.80
2022-10-07T14:39:25.905Z,11.80
2022-10-07T14:41:56.841Z,11.80
2022-10-07T14:44:27.361Z,11.70
2022-10-07T14:47:06.294Z,11.70
2022-10-07T14:49:37.998Z,11.70
2022-10-07T14:52:08.903Z,11.60
2022-10-07T14:54:39.056Z,11.60
2022-10-07T14:57:09.136Z,11.60
2022-10-07T14:59:39.385Z,11.70
2022-10-07T15:02:10.008Z,12.00
2022-10-07T15:04:45.832Z,12.20
2022-10-07T15:07:16.692Z,12.20
2022-10-07T15:09:47.999Z,12.10
2022-10-07T15:12:19.116Z,12.10
2022-10-07T15:14:49.275Z,11.90
2022-10-07T15:17:20.154Z,11.80
2022-10-07T15:19:54.646Z,11.80
2022-10-07T15:22:24.732Z,11.50
2022-10-07T15:24:54.746Z,11.40
2022-10-07T15:27:24.946Z,11.40
2022-10-07T15:29:56.005Z,11.40
2022-10-07T15:32:26.642Z,11.40
2022-10-07T15:34:59.215Z,11.60
2022-10-07T15:37:29.648Z,11.70
2022-10-07T15:40:00.211Z,12.00
2022-10-07T15:42:30.372Z,12.20
2022-10-07T15:45:00.679Z,12.40
2022-10-07T15:47:32.184Z,12.50
2022-10-07T15:50:03.802Z,12.70
2022-10-07T15:52:34.101Z,12.70
2022-10-07T15:55:07.781Z,12.60
2022-10-07T15:57:38.496Z,12.50
2022-10-07T16:00:10.239Z,12.50
2022-10-07T16:02:40.321Z,12.40
2022-10-07T16:05:13.698Z,12.30
2022-10-07T16:07:43.757Z,12.10
2022-10-07T16:10:13.827Z,11.90
2022-10-07T16:12:44.128Z,11.80
2022-10-07T16:15:14.534Z,11.80
2022-10-07T16:17:44.887Z,11.90
2022-10-07T16:20:19.118Z,12.10
2022-10-07T16:22:49.328Z,12.20
2022-10-07T16:25:19.460Z,12.20
2022-10-07T16:28:06.412Z,12.30
2022-10-07T16:30:49.662Z,12.90
2022-10-07T16:33:20.661Z,13.70
2022-10-07T16:35:52.618Z,14.40
2022-10-07T16:38:23.023Z,14.30
2022-10-07T16:40:56.932Z,14.10
2022-10-07T16:43:27.001Z,13.80
2022-10-07T16:45:57.049Z,13.60
2022-10-07T16:48:28.007Z,13.20
2022-10-07T16:50:59.895Z,12.80
2022-10-07T16:53:29.967Z,12.50
2022-10-07T16:56:05.372Z,12.30
2022-10-07T16:58:36.033Z,12.30
2022-10-07T17:01:06.633Z,12.40
2022-10-07T17:03:37.382Z,12.70
2022-10-07T17:06:10.643Z,13.20
2022-10-07T17:08:44.900Z,13.80
2022-10-07T17:11:30.625Z,14.00
2022-10-07T17:14:01.921Z,13.80
2022-10-07T17:16:34.680Z,13.50
2022-10-07T17:19:04.807Z,13.10
2022-10-07T17:21:38.635Z,13.10
2022-10-07T17:24:09.068Z,12.70
2022-10-07T17:26:39.949Z,12.50
2022-10-07T17:29:12.630Z,12.40
2022-10-07T17:31:44.620Z,12.40
2022-10-07T17:34:16.595Z,12.40
2022-10-07T17:36:48.588Z,12.20
2022-10-07T17:39:19.760Z,12.10
2022-10-07T17:41:50.514Z,12.10
2022-10-07T17:44:22.111Z,12.00
2022-10-07T17:46:52.217Z,11.90
2022-10-07T17:49:22.451Z,11.80
2022-10-07T17:51:55.816Z,11.70
2022-10-07T17:54:26.367Z,11.60
2022-10-07T17:56:56.540Z,11.50
2022-10-07T17:59:27.721Z,11.40
2022-10-07T18:01:57.725Z,11.30
2022-10-07T18:04:28.192Z,11.30
2022-10-07T18:07:00.326Z,11.20
2022-10-07T18:09:30.428Z,11.20
2022-10-07T18:12:18.073Z,11.20
2022-10-07T18:15:05.057Z,11.20
2022-10-07T18:17:36.450Z,11.20
2022-10-07T18:20:12.740Z,11.20
2022-10-07T18:22:46.577Z,11.20
2022-10-07T18:25:16.837Z,11.20
2022-10-07T18:27:47.147Z,11.20
2022-10-07T18:30:17.548Z,11.20
2022-10-07T18:32:47.759Z,11.30
2022-10-07T18:35:19.256Z,11.20
2022-10-07T18:37:53.384Z,11.10
2022-10-07T18:40:24.245Z,10.70
2022-10-07T18:42:54.505Z,10.50
2022-10-07T18:45:24.746Z,10.50
2022-10-07T18:47:54.820Z,10.50
2022-10-07T18:50:24.902Z,10.50
2022-10-07T18:52:57.329Z,10.70
2022-10-07T18:55:27.449Z,10.80
2022-10-07T18:57:57.473Z,11.10
2022-10-07T19:00:27.568Z,11.30
2022-10-07T19:02:57.689Z,11.40
2022-10-07T19:05:32.934Z,11.30
2022-10-07T19:08:07.125Z,11.10
2022-10-07T19:10:42.602Z,10.90
2022-10-07T19:13:31.468Z,10.70
2022-10-07T19:16:05.825Z,10.50
2022-10-07T19:18:36.883Z,10.40
2022-10-07T19:21:07.216Z,10.20
2022-10-07T19:23:38.842Z,10.00
2022-10-07T19:26:09.577Z,10.00
2022-10-07T19:28:40.647Z,10.00
2022-10-07T19:31:15.545Z,10.10
2022-10-07T19:33:46.136Z,10.30
2022-10-07T19:36:18.300Z,10.30
2022-10-07T19:38:53.002Z,10.60
2022-10-07T19:41:25.519Z,10.70
2022-10-07T19:43:55.669Z,11.00
2022-10-07T19:46:27.259Z,11.50
2022-10-07T19:48:59.060Z,11.80
2022-10-07T19:51:31.060Z,11.80
2022-10-07T19:54:04.126Z,11.60
2022-10-07T19:56:35.931Z,11.30
2022-10-07T19:59:07.770Z,10.90
2022-10-07T20:04:24.117Z,10.50
2022-10-07T20:06:54.699Z,10.20
2022-10-07T20:09:26.843Z,10.30
2022-10-07T20:11:56.942Z,10.20
2022-10-07T20:14:27.121Z,10.10
2022-10-07T20:16:57.919Z,9.90
2022-10-07T20:19:28.026Z,9.80
2022-10-07T20:22:01.676Z,9.80
2022-10-07T20:24:33.330Z,9.80
2022-10-07T20:27:05.053Z,9.70
2022-10-07T20:29:55.082Z,9.70
2022-10-07T20:32:25.317Z,9.70
2022-10-07T20:34:55.597Z,10.10
2022-10-07T20:37:25.761Z,10.10
2022-10-07T20:40:14.202Z,10.00
2022-10-07T20:42:47.003Z,9.90
2022-10-07T20:45:17.378Z,9.80
2022-10-07T20:47:48.077Z,9.70
2022-10-07T20:50:18.249Z,9.60
2022-10-07T20:52:48.667Z,9.50
2022-10-07T20:55:20.666Z,9.50
2022-10-07T20:57:52.132Z,9.50
2022-10-07T21:00:22.169Z,9.50
2022-10-07T21:02:52.293Z,9.40
2022-10-07T21:05:22.803Z,9.40
2022-10-07T21:07:54.793Z,9.40
2022-10-07T21:10:26.577Z,9.30
2022-10-07T21:12:56.675Z,9.30
2022-10-07T21:15:26.705Z,9.60
2022-10-07T21:17:56.829Z,9.90
2022-10-07T21:20:26.953Z,9.90
2022-10-07T21:22:57.035Z,9.80
2022-10-07T21:25:29.237Z,9.70
2022-10-07T21:27:59.896Z,9.60
2022-10-07T21:30:30.062Z,9.60
2022-10-07T21:33:00.189Z,9.40
2022-10-07T21:35:30.701Z,9.20
2022-10-07T21:38:00.809Z,9.10
2022-10-07T21:40:32.509Z,9.00
2022-10-07T21:43:03.125Z,8.90
2022-10-07T21:45:33.349Z,8.80
2022-10-07T21:48:03.740Z,8.70
2022-10-07T21:50:33.772Z,8.60
2022-10-07T21:53:04.094Z,8.40
2022-10-07T21:55:38.249Z,8.30
2022-10-07T21:58:08.720Z,8.00
2022-10-07T22:00:39.533Z,7.90
2022-10-07T22:03:11.246Z,7.80
2022-10-07T22:05:41.695Z,7.80
2022-10-07T22:08:33.224Z,7.80
2022-10-07T22:11:06.387Z,7.90
2022-10-07T22:13:38.289Z,7.90
2022-10-07T22:16:10.685Z,7.90
2022-10-07T22:18:40.766Z,7.70
2022-10-07T22:21:14.626Z,7.60
2022-10-07T22:23:45.550Z,7.50
2022-10-07T22:26:17.344Z,7.40
2022-10-07T22:28:48.309Z,7.40
2022-10-07T22:31:19.167Z,7.30
2022-10-07T22:33:54.677Z,7.30
2022-10-07T22:36:23.631Z,7.40
2022-10-07T22:38:54.538Z,7.30
2022-10-07T22:41:27.025Z,7.30
2022-10-07T22:43:57.217Z,7.30
2022-10-07T22:46:29.342Z,7.30
2022-10-07T22:49:00.237Z,7.30
2022-10-07T22:51:30.444Z,7.40
2022-10-07T22:54:00.564Z,7.40
2022-10-07T22:56:32.208Z,7.40
2022-10-07T22:59:03.353Z,7.40
2022-10-07T23:01:33.818Z,7.40
2022-10-07T23:04:05.180Z,7.30
2022-10-07T23:06:37.677Z,7.20
2022-10-07T23:09:08.059Z,7.10
2022-10-07T23:11:39.696Z,7.00
2022-10-07T23:14:09.873Z,6.90
2022-10-07T23:16:39.928Z,6.90
2022-10-07T23:19:11.174Z,6.90
2022-10-07T23:21:41.159Z,6.90
2022-10-07T23:24:12.644Z,6.90
2022-10-07T23:26:46.491Z,6.90
2022-10-07T23:29:16.892Z,6.80
2022-10-07T23:31:46.916Z,6.80
2022-10-07T23:34:18.028Z,6.70
2022-10-07T23:36:48.154Z,6.60
2022-10-07T23:39:18.230Z,6.50
2022-10-07T23:41:50.250Z,6.40
2022-10-07T23:44:20.478Z,6.50
2022-10-07T23:46:52.191Z,6.50
2022-10-07T23:49:22.505Z,6.60
2022-10-07T23:51:52.846Z,6.60
2022-10-07T23:54:22.896Z,6.60
2022-10-07T23:56:54.545Z,6.60
2022-10-07T23:59:24.835Z,6.50
